Flight Track Log - Related Links

Times and Time Zones

All times are in EDT time to prevent confusion due to time zone crossing. See the UAL3744 flight status page for this flight to view local times or setup timezone preferences in your user account.

Time Position Orientation Groundspeed Altitude Reporting Facility
EDT Latitude Longitude Course Direction KTS MPH feet Rate Location/Type
Sat 02:31:21 PM 43.1089 -76.0922 209° Southwest 138 159 1,400  Level Boston Center
Sat 02:32:28 PM 43.0858 -76.0283 116° Southeast 211 243 4,200 2,457 Climbing Boston Center
Sat 02:33:28 PM 43.0383 -76.0822 220° Southwest 241 277 6,600 2,047 Climbing Boston Center
Sat 02:34:00 PM 42.7271 -76.5234 210° Southwest  Level FlightAware
Sat 02:35:00 PM 42.6286 -76.6107 200° South  Level FlightAware
Sat 02:35:18 PM 42.9578 -76.2139 230° Southwest 275 316 10,000  Level New Center
Sat 02:36:00 PM 42.5171 -76.6830 209° Southwest  Level FlightAware
Sat 02:36:16 PM 42.9092 -76.3258 239° Southwest 316 364 10,000  Level New Center
Sat 02:37:17 PM 42.8517 -76.4425 236° Southwest 351 404 10,800 1,388 Climbing New Center
Sat 02:38:17 PM 42.7647 -76.5167 212° Southwest 368 423 12,800 2,067 Climbing New Center
Sat 02:39:16 PM 42.6761 -76.5850 210° Southwest 368 423 14,900 2,033 Climbing New Center
Sat 02:40:18 PM 42.5878 -76.6503 209° Southwest 368 423 16,900 1,033 Climbing New Center
Sat 02:41:18 PM 42.4947 -76.7206 209° Southwest 379 436 17,000 500 Climbing New Center
Sat 02:42:18 PM 42.3994 -76.7933 209° Southwest 393 452 17,900 1,322 Climbing New Center
Sat 02:43:16 PM 42.3000 -76.8686 209° Southwest 404 465 19,600 1,881 Climbing New Center
Sat 02:44:16 PM 42.2000 -76.9461 210° Southwest 415 478 21,600 1,983 Climbing New Center
Sat 02:45:17 PM 42.1006 -77.0206 209° Southwest 415 478 23,600 1,171 Climbing New Center
Sat 02:46:19 PM 41.9981 -77.1058 212° Southwest 425 489 24,000 198 Climbing New Center
Sat 02:47:18 PM 41.8936 -77.1906 211° Southwest 439 505 24,000  Level New Center
Sat 02:48:18 PM 41.7886 -77.2806 213° Southwest 444 511 24,000  Level New Center
Sat 02:49:16 PM 41.6819 -77.3675 211° Southwest 449 517 24,000  Level New Center
Sat 02:50:17 PM 41.5747 -77.4567 212° Southwest 454 522 24,000  Level New Center
Sat 02:51:17 PM 41.4642 -77.5344 208° Southwest 454 522 24,000  Level New Center
Sat 02:52:18 PM 41.3297 -77.5181 175° South 444 511 24,000  Level New Center
Sat 02:53:16 PM 41.1958 -77.4908 171° South 466 536 24,000  Level New Center
Sat 02:54:17 PM 41.0617 -77.4694 173° South 482 555 24,000  Level New Center
Sat 02:55:18 PM 40.9256 -77.4422 171° South 488 562 24,000 -202 Level New Center
Sat 02:56:16 PM 40.7894 -77.4181 172° South 498 573 23,600 -958 Descending New Center
Sat 02:57:17 PM 40.6572 -77.3969 173° South 498 573 22,100 -1,488 Descending New Center
Sat 02:58:17 PM 40.5292 -77.3739 172° South 488 562 20,600 -1,587 Descending New Center
Sat 02:59:18 PM 40.3908 -77.3497 172° South 468 539 18,900 -1,168 Descending New Center
Sat 03:01:22 PM 40.1333 -77.3000 172° South 419 482 17,000 -1,272 Descending Potomac TRACON
Sat 03:02:22 PM 40.0167 -77.2833 174° South 414 476 15,000 -1,900 Descending Potomac TRACON
Sat 03:03:22 PM 39.9167 -77.2833 180° South 400 460 13,200 -1,686 Descending Potomac TRACON
Sat 03:04:23 PM 39.8000 -77.3000 186° South 381 438 11,600 -1,513 Descending Potomac TRACON
Sat 03:05:17 PM 39.7167 -77.3167 189° South 372 428 10,300 -1,050 Descending Potomac TRACON
Sat 03:06:23 PM 39.6167 -77.3500 194° South 290 334 9,500 -1,190 Descending Potomac TRACON
Sat 03:07:18 PM 39.5500 -77.3833 201° Southwest 287 330 7,900 -1,670 Descending Potomac TRACON
Sat 03:08:18 PM 39.4833 -77.4167 201° Southwest 273 314 6,300 -1,619 Descending Potomac TRACON
Sat 03:09:24 PM 39.4000 -77.4333 189° South 257 296 4,500 -1,095 Descending Potomac TRACON
Sat 03:10:24 PM 39.3333 -77.4333 180° South 251 289 4,000 -250 Descending Potomac TRACON
Sat 03:11:24 PM 39.2667 -77.4333 180° South 255 293 4,000  Level Potomac TRACON
Sat 03:12:25 PM 39.2000 -77.4333 180° South 247 284 4,000 -50 Level Potomac TRACON
Sat 03:13:25 PM 39.1333 -77.4333 180° South 194 223 3,900 -545 Descending Potomac TRACON
Sat 03:14:26 PM 39.0833 -77.4333 180° South 176 203 2,900 -984 Descending Potomac TRACON

Login

Don't have an account? Register now (free) for customized features, flight alerts, and more!